sensor_id;sensor_type;location;lat;lon;timestamp;pressure;altitude;pressure_sealevel;temperature;humidity
3178;BME280;38141;42.666;23.344;2023-02-26T00:01:28;93526.28;;;14.98;46.99
3178;BME280;38141;42.666;23.344;2023-02-26T00:03:57;93512.22;;;14.87;47.65
3178;BME280;38141;42.666;23.344;2023-02-26T00:06:25;93519.53;;;14.90;47.54
3178;BME280;38141;42.666;23.344;2023-02-26T00:08:52;93523.25;;;14.83;47.11
3178;BME280;38141;42.666;23.344;2023-02-26T00:11:19;93526.81;;;14.93;46.29
3178;BME280;38141;42.666;23.344;2023-02-26T00:13:46;93514.38;;;15.04;46.71
3178;BME280;38141;42.666;23.344;2023-02-26T00:16:23;93507.13;;;14.89;46.07
3178;BME280;38141;42.666;23.344;2023-02-26T00:18:51;93510.47;;;14.93;46.60
3178;BME280;38141;42.666;23.344;2023-02-26T00:21:19;93508.75;;;14.86;47.20
3178;BME280;38141;42.666;23.344;2023-02-26T00:23:47;93450.97;;;14.57;47.27
3178;BME280;38141;42.666;23.344;2023-02-26T00:26:14;93502.44;;;14.77;47.14
3178;BME280;38141;42.666;23.344;2023-02-26T00:28:41;93485.59;;;14.56;46.87
3178;BME280;38141;42.666;23.344;2023-02-26T00:31:09;93514.75;;;14.68;47.43
3178;BME280;38141;42.666;23.344;2023-02-26T00:33:38;93470.69;;;14.61;46.50
3178;BME280;38141;42.666;23.344;2023-02-26T00:36:16;93508.09;;;14.82;46.26
3178;BME280;38141;42.666;23.344;2023-02-26T00:38:46;93502.44;;;14.77;46.64
3178;BME280;38141;42.666;23.344;2023-02-26T00:41:16;93488.84;;;14.64;46.77
3178;BME280;38141;42.666;23.344;2023-02-26T00:43:44;93508.13;;;14.69;46.52
3178;BME280;38141;42.666;23.344;2023-02-26T00:46:20;93426.72;;;14.12;47.11
3178;BME280;38141;42.666;23.344;2023-02-26T00:48:58;93502.78;;;14.66;46.64
3178;BME280;38141;42.666;23.344;2023-02-26T00:51:30;93502.66;;;14.69;46.59
3178;BME280;38141;42.666;23.344;2023-02-26T00:54:04;93473.28;;;14.64;45.97
3178;BME280;38141;42.666;23.344;2023-02-26T00:56:33;93469.13;;;14.60;45.31
3178;BME280;38141;42.666;23.344;2023-02-26T00:59:00;93487.50;;;14.81;45.42
3178;BME280;38141;42.666;23.344;2023-02-26T01:01:27;93500.16;;;14.75;45.59
3178;BME280;38141;42.666;23.344;2023-02-26T01:03:56;93478.25;;;14.79;45.05
3178;BME280;38141;42.666;23.344;2023-02-26T01:06:27;93469.25;;;14.69;45.84
3178;BME280;38141;42.666;23.344;2023-02-26T01:08:58;93487.09;;;14.70;46.12
3178;BME280;38141;42.666;23.344;2023-02-26T01:11:28;93467.41;;;14.66;44.76
3178;BME280;38141;42.666;23.344;2023-02-26T01:13:55;93466.31;;;14.63;45.44
3178;BME280;38141;42.666;23.344;2023-02-26T01:16:26;93481.97;;;14.85;44.49
3178;BME280;38141;42.666;23.344;2023-02-26T01:19:00;93429.69;;;14.77;44.32
3178;BME280;38141;42.666;23.344;2023-02-26T01:21:32;93427.59;;;14.81;45.05
3178;BME280;38141;42.666;23.344;2023-02-26T01:24:02;93345.75;;;14.29;44.92
3178;BME280;38141;42.666;23.344;2023-02-26T01:26:31;93376.53;;;14.25;44.70
3178;BME280;38141;42.666;23.344;2023-02-26T01:28:58;93432.31;;;14.81;45.01
3178;BME280;38141;42.666;23.344;2023-02-26T01:31:38;93411.16;;;14.85;44.53
3178;BME280;38141;42.666;23.344;2023-02-26T01:34:14;93400.53;;;14.65;44.07
3178;BME280;38141;42.666;23.344;2023-02-26T01:36:49;93388.09;;;14.77;44.72
3178;BME280;38141;42.666;23.344;2023-02-26T01:39:25;93409.25;;;15.07;44.63
3178;BME280;38141;42.666;23.344;2023-02-26T01:41:57;93390.16;;;14.85;44.26
3178;BME280;38141;42.666;23.344;2023-02-26T01:44:30;93392.22;;;14.81;43.95
3178;BME280;38141;42.666;23.344;2023-02-26T01:47:08;93404.13;;;14.75;44.30
3178;BME280;38141;42.666;23.344;2023-02-26T01:49:41;93339.44;;;14.44;44.62
3178;BME280;38141;42.666;23.344;2023-02-26T01:55:07;93347.16;;;14.33;44.24
3178;BME280;38141;42.666;23.344;2023-02-26T01:57:34;93470.56;;;14.64;43.39
3178;BME280;38141;42.666;23.344;2023-02-26T02:00:02;93379.13;;;14.54;43.63
3178;BME280;38141;42.666;23.344;2023-02-26T02:02:30;93292.22;;;14.13;43.57
3178;BME280;38141;42.666;23.344;2023-02-26T02:05:02;93305.09;;;14.12;43.66
3178;BME280;38141;42.666;23.344;2023-02-26T02:07:30;93381.84;;;14.54;43.69
3178;BME280;38141;42.666;23.344;2023-02-26T02:09:57;93391.28;;;14.75;43.76
3178;BME280;38141;42.666;23.344;2023-02-26T02:12:31;93362.81;;;14.42;44.22
3178;BME280;38141;42.666;23.344;2023-02-26T02:15:07;93372.72;;;14.48;44.50
3178;BME280;38141;42.666;23.344;2023-02-26T02:17:43;93404.63;;;14.48;44.56
3178;BME280;38141;42.666;23.344;2023-02-26T02:20:42;93377.63;;;14.41;43.83
3178;BME280;38141;42.666;23.344;2023-02-26T02:23:18;93332.38;;;14.21;43.87
3178;BME280;38141;42.666;23.344;2023-02-26T02:26:21;93404.25;;;14.71;43.34
3178;BME280;38141;42.666;23.344;2023-02-26T02:29:05;93386.25;;;14.74;43.34
3178;BME280;38141;42.666;23.344;2023-02-26T02:31:39;93377.44;;;14.69;42.31
3178;BME280;38141;42.666;23.344;2023-02-26T02:34:11;93399.78;;;14.64;43.75
3178;BME280;38141;42.666;23.344;2023-02-26T02:36:44;93383.38;;;14.55;42.82
3178;BME280;38141;42.666;23.344;2023-02-26T02:39:15;93369.78;;;14.43;42.39
3178;BME280;38141;42.666;23.344;2023-02-26T02:41:48;93388.69;;;14.59;42.89
3178;BME280;38141;42.666;23.344;2023-02-26T02:44:20;93321.41;;;14.00;42.81
3178;BME280;38141;42.666;23.344;2023-02-26T02:46:51;93315.47;;;13.79;42.47
3178;BME280;38141;42.666;23.344;2023-02-26T02:49:24;93405.03;;;14.46;43.16
3178;BME280;38141;42.666;23.344;2023-02-26T02:51:55;93414.84;;;14.44;42.97
3178;BME280;38141;42.666;23.344;2023-02-26T02:54:29;93351.50;;;14.18;42.67
3178;BME280;38141;42.666;23.344;2023-02-26T02:57:00;93363.50;;;14.20;42.63
3178;BME280;38141;42.666;23.344;2023-02-26T02:59:31;93343.34;;;14.18;42.59
3178;BME280;38141;42.666;23.344;2023-02-26T03:02:03;93435.38;;;14.70;42.71
3178;BME280;38141;42.666;23.344;2023-02-26T03:04:33;93346.75;;;14.09;42.66
3178;BME280;38141;42.666;23.344;2023-02-26T03:07:01;93364.59;;;14.10;41.92
3178;BME280;38141;42.666;23.344;2023-02-26T03:09:27;93347.81;;;14.24;42.07
3178;BME280;38141;42.666;23.344;2023-02-26T03:11:54;93415.41;;;14.39;42.15
3178;BME280;38141;42.666;23.344;2023-02-26T03:14:21;93385.19;;;14.58;42.30
3178;BME280;38141;42.666;23.344;2023-02-26T03:17:01;93374.13;;;14.53;41.31
3178;BME280;38141;42.666;23.344;2023-02-26T03:19:37;93411.78;;;14.54;42.03
3178;BME280;38141;42.666;23.344;2023-02-26T03:22:08;93365.53;;;14.29;41.43
3178;BME280;38141;42.666;23.344;2023-02-26T03:24:43;93258.31;;;13.58;42.15
3178;BME280;38141;42.666;23.344;2023-02-26T03:27:18;93355.03;;;14.06;42.05
3178;BME280;38141;42.666;23.344;2023-02-26T03:29:50;93392.75;;;14.42;41.63
3178;BME280;38141;42.666;23.344;2023-02-26T03:32:24;93398.81;;;14.58;41.61
3178;BME280;38141;42.666;23.344;2023-02-26T03:34:59;93369.25;;;14.35;41.51
3178;BME280;38141;42.666;23.344;2023-02-26T03:37:31;93302.00;;;13.76;41.67
3178;BME280;38141;42.666;23.344;2023-02-26T03:40:03;93342.06;;;14.10;42.26
3178;BME280;38141;42.666;23.344;2023-02-26T03:42:35;93402.53;;;14.52;42.23
3178;BME280;38141;42.666;23.344;2023-02-26T03:45:07;93306.88;;;13.94;41.74
3178;BME280;38141;42.666;23.344;2023-02-26T03:47:37;93415.59;;;14.57;41.77
3178;BME280;38141;42.666;23.344;2023-02-26T03:50:07;93378.16;;;14.48;42.34
3178;BME280;38141;42.666;23.344;2023-02-26T03:52:38;93420.28;;;14.56;41.79
3178;BME280;38141;42.666;23.344;2023-02-26T03:55:09;93390.13;;;14.51;42.02
3178;BME280;38141;42.666;23.344;2023-02-26T03:57:37;93364.78;;;14.29;42.31
3178;BME280;38141;42.666;23.344;2023-02-26T04:00:06;93377.28;;;14.51;42.50
3178;BME280;38141;42.666;23.344;2023-02-26T04:02:41;93370.78;;;14.36;42.43
3178;BME280;38141;42.666;23.344;2023-02-26T04:05:13;93383.91;;;14.50;42.12
3178;BME280;38141;42.666;23.344;2023-02-26T04:07:41;93402.53;;;14.52;42.43
3178;BME280;38141;42.666;23.344;2023-02-26T04:10:09;93384.38;;;14.49;42.23
3178;BME280;38141;42.666;23.344;2023-02-26T04:12:36;93354.44;;;14.36;42.16
3178;BME280;38141;42.666;23.344;2023-02-26T04:15:04;93371.50;;;14.49;41.76
3178;BME280;38141;42.666;23.344;2023-02-26T04:21:16;93374.44;;;14.55;42.34
3178;BME280;38141;42.666;23.344;2023-02-26T04:23:44;93375.06;;;14.59;41.98
3178;BME280;38141;42.666;23.344;2023-02-26T04:26:11;93368.13;;;14.58;42.01
3178;BME280;38141;42.666;23.344;2023-02-26T04:31:37;93305.28;;;14.18;41.62
3178;BME280;38141;42.666;23.344;2023-02-26T04:34:04;93349.09;;;14.45;41.99
3178;BME280;38141;42.666;23.344;2023-02-26T04:36:32;93325.38;;;14.33;41.59
3178;BME280;38141;42.666;23.344;2023-02-26T04:38:59;93355.94;;;14.50;41.92
3178;BME280;38141;42.666;23.344;2023-02-26T04:41:26;93283.72;;;14.23;41.45
3178;BME280;38141;42.666;23.344;2023-02-26T04:43:53;93343.88;;;14.51;41.43
3178;BME280;38141;42.666;23.344;2023-02-26T04:46:19;93345.69;;;14.54;40.97
3178;BME280;38141;42.666;23.344;2023-02-26T04:48:46;93347.22;;;14.55;41.17
3178;BME280;38141;42.666;23.344;2023-02-26T04:51:13;93246.06;;;13.88;41.40
3178;BME280;38141;42.666;23.344;2023-02-26T04:53:42;93326.72;;;14.63;40.92
3178;BME280;38141;42.666;23.344;2023-02-26T04:56:09;93339.41;;;14.79;40.49
3178;BME280;38141;42.666;23.344;2023-02-26T04:58:36;93339.66;;;14.72;40.48
3178;BME280;38141;42.666;23.344;2023-02-26T05:01:03;93335.66;;;14.63;40.72
3178;BME280;38141;42.666;23.344;2023-02-26T05:03:30;93340.78;;;14.61;41.15
3178;BME280;38141;42.666;23.344;2023-02-26T05:05:57;93328.97;;;14.43;41.17
3178;BME280;38141;42.666;23.344;2023-02-26T05:08:24;93304.41;;;14.21;41.13
3178;BME280;38141;42.666;23.344;2023-02-26T05:10:52;93274.34;;;14.03;41.29
3178;BME280;38141;42.666;23.344;2023-02-26T05:13:21;93328.81;;;14.59;40.08
3178;BME280;38141;42.666;23.344;2023-02-26T05:15:47;93285.88;;;14.41;40.21
3178;BME280;38141;42.666;23.344;2023-02-26T05:18:14;93308.91;;;14.49;40.98
3178;BME280;38141;42.666;23.344;2023-02-26T05:21:03;93329.78;;;14.65;40.51
3178;BME280;38141;42.666;23.344;2023-02-26T05:23:33;93312.69;;;14.64;40.49
3178;BME280;38141;42.666;23.344;2023-02-26T05:26:01;93259.28;;;14.58;40.44
3178;BME280;38141;42.666;23.344;2023-02-26T05:28:28;93231.06;;;14.17;40.48
3178;BME280;38141;42.666;23.344;2023-02-26T05:30:55;93340.38;;;14.50;41.38
3178;BME280;38141;42.666;23.344;2023-02-26T05:33:22;93328.56;;;14.44;40.76
3178;BME280;38141;42.666;23.344;2023-02-26T05:35:49;93290.63;;;14.50;40.80
3178;BME280;38141;42.666;23.344;2023-02-26T05:38:16;93319.34;;;14.85;40.22
3178;BME280;38141;42.666;23.344;2023-02-26T05:40:43;93262.97;;;14.73;40.62
3178;BME280;38141;42.666;23.344;2023-02-26T05:43:11;93312.06;;;15.04;40.06
3178;BME280;38141;42.666;23.344;2023-02-26T05:45:38;93320.28;;;15.13;39.64
3178;BME280;38141;42.666;23.344;2023-02-26T05:48:05;93332.19;;;15.28;39.53
3178;BME280;38141;42.666;23.344;2023-02-26T05:50:32;93331.00;;;15.29;39.77
3178;BME280;38141;42.666;23.344;2023-02-26T05:52:58;93339.59;;;15.28;39.22
3178;BME280;38141;42.666;23.344;2023-02-26T05:55:26;93333.44;;;15.36;39.23
3178;BME280;38141;42.666;23.344;2023-02-26T05:57:53;93321.34;;;15.37;38.96
3178;BME280;38141;42.666;23.344;2023-02-26T06:00:21;93337.19;;;15.51;38.81
3178;BME280;38141;42.666;23.344;2023-02-26T06:02:48;93335.09;;;15.55;38.37
3178;BME280;38141;42.666;23.344;2023-02-26T06:05:15;93358.72;;;15.58;38.46
3178;BME280;38141;42.666;23.344;2023-02-26T06:07:42;93314.63;;;15.51;38.50
3178;BME280;38141;42.666;23.344;2023-02-26T06:10:10;93326.91;;;15.55;38.37
3178;BME280;38141;42.666;23.344;2023-02-26T06:12:37;93347.88;;;15.68;38.06
3178;BME280;38141;42.666;23.344;2023-02-26T06:15:05;93330.13;;;15.63;38.02
3178;BME280;38141;42.666;23.344;2023-02-26T06:17:35;93344.69;;;15.69;37.78
3178;BME280;38141;42.666;23.344;2023-02-26T06:20:02;93331.63;;;15.95;37.33
3178;BME280;38141;42.666;23.344;2023-02-26T06:22:29;93356.72;;;16.21;37.22
3178;BME280;38141;42.666;23.344;2023-02-26T06:24:56;93361.56;;;16.17;37.32
3178;BME280;38141;42.666;23.344;2023-02-26T06:27:23;93367.38;;;16.37;36.88
3178;BME280;38141;42.666;23.344;2023-02-26T06:29:50;93349.06;;;16.56;36.39
3178;BME280;38141;42.666;23.344;2023-02-26T06:32:16;93340.00;;;16.77;35.98
3178;BME280;38141;42.666;23.344;2023-02-26T06:34:45;93354.41;;;16.77;36.17
3178;BME280;38141;42.666;23.344;2023-02-26T06:37:11;93354.25;;;16.90;35.78
3178;BME280;38141;42.666;23.344;2023-02-26T06:39:38;93348.66;;;17.03;35.36
3178;BME280;38141;42.666;23.344;2023-02-26T06:42:05;93321.47;;;16.99;35.31
3178;BME280;38141;42.666;23.344;2023-02-26T06:44:32;93286.28;;;16.92;35.23
3178;BME280;38141;42.666;23.344;2023-02-26T06:46:58;93310.94;;;17.43;34.71
3178;BME280;38141;42.666;23.344;2023-02-26T06:49:25;93311.38;;;17.51;34.75
3178;BME280;38141;42.666;23.344;2023-02-26T06:51:53;93292.53;;;17.62;34.06
3178;BME280;38141;42.666;23.344;2023-02-26T06:54:20;93320.25;;;17.88;33.82
3178;BME280;38141;42.666;23.344;2023-02-26T06:56:47;93309.16;;;17.82;33.63
3178;BME280;38141;42.666;23.344;2023-02-26T06:59:14;93334.44;;;18.10;33.31
3178;BME280;38141;42.666;23.344;2023-02-26T07:01:40;93329.03;;;18.25;33.23
3178;BME280;38141;42.666;23.344;2023-02-26T07:04:07;93323.69;;;18.30;33.07
3178;BME280;38141;42.666;23.344;2023-02-26T07:06:34;93303.09;;;18.44;33.22
3178;BME280;38141;42.666;23.344;2023-02-26T07:09:02;93307.00;;;18.76;32.69
3178;BME280;38141;42.666;23.344;2023-02-26T07:11:29;93292.28;;;18.88;32.18
3178;BME280;38141;42.666;23.344;2023-02-26T07:13:56;93310.00;;;19.16;32.54
3178;BME280;38141;42.666;23.344;2023-02-26T07:16:23;93329.63;;;19.00;32.17
3178;BME280;38141;42.666;23.344;2023-02-26T07:18:49;93236.50;;;18.91;32.38
3178;BME280;38141;42.666;23.344;2023-02-26T07:21:16;93274.72;;;19.09;32.12
3178;BME280;38141;42.666;23.344;2023-02-26T07:23:43;93294.97;;;19.12;32.08
3178;BME280;38141;42.666;23.344;2023-02-26T07:26:11;93297.13;;;19.22;31.50
3178;BME280;38141;42.666;23.344;2023-02-26T07:28:38;93313.28;;;19.44;31.26
3178;BME280;38141;42.666;23.344;2023-02-26T07:31:05;93289.28;;;19.88;30.91
3178;BME280;38141;42.666;23.344;2023-02-26T07:33:32;93282.41;;;19.64;31.22
3178;BME280;38141;42.666;23.344;2023-02-26T07:35:59;93314.66;;;19.25;31.44
3178;BME280;38141;42.666;23.344;2023-02-26T07:38:26;93265.38;;;19.30;31.63
3178;BME280;38141;42.666;23.344;2023-02-26T07:40:53;93282.41;;;19.64;30.91
3178;BME280;38141;42.666;23.344;2023-02-26T07:43:22;93290.97;;;20.01;30.58
3178;BME280;38141;42.666;23.344;2023-02-26T07:45:49;93265.56;;;20.40;29.81
3178;BME280;38141;42.666;23.344;2023-02-26T07:48:16;93300.75;;;20.77;29.66
3178;BME280;38141;42.666;23.344;2023-02-26T07:50:45;93285.88;;;21.29;29.19
3178;BME280;38141;42.666;23.344;2023-02-26T07:53:12;93347.78;;;21.19;28.99
3178;BME280;38141;42.666;23.344;2023-02-26T07:55:38;93300.09;;;21.54;28.82
3178;BME280;38141;42.666;23.344;2023-02-26T07:58:05;93252.31;;;20.79;29.42
3178;BME280;38141;42.666;23.344;2023-02-26T08:00:33;93293.81;;;21.02;28.94
3178;BME280;38141;42.666;23.344;2023-02-26T08:03:00;93331.13;;;20.48;29.13
3178;BME280;38141;42.666;23.344;2023-02-26T08:05:27;93332.28;;;20.41;29.44
3178;BME280;38141;42.666;23.344;2023-02-26T08:07:54;93322.34;;;20.44;29.36
3178;BME280;38141;42.666;23.344;2023-02-26T08:10:20;93314.00;;;20.38;29.85
3178;BME280;38141;42.666;23.344;2023-02-26T08:12:47;93317.81;;;20.26;29.66
3178;BME280;38141;42.666;23.344;2023-02-26T08:15:14;93308.94;;;20.51;29.56
3178;BME280;38141;42.666;23.344;2023-02-26T08:17:42;93330.97;;;20.36;29.50
3178;BME280;38141;42.666;23.344;2023-02-26T08:20:10;93301.16;;;20.50;29.65
3178;BME280;38141;42.666;23.344;2023-02-26T08:22:39;93304.81;;;20.81;29.39
3178;BME280;38141;42.666;23.344;2023-02-26T08:25:06;93327.41;;;20.30;29.72
3178;BME280;38141;42.666;23.344;2023-02-26T08:27:33;93342.53;;;20.61;29.36
3178;BME280;38141;42.666;23.344;2023-02-26T08:30:00;93327.16;;;20.69;29.09
3178;BME280;38141;42.666;23.344;2023-02-26T08:32:27;93322.53;;;20.80;28.93
3178;BME280;38141;42.666;23.344;2023-02-26T08:34:56;93344.88;;;21.28;28.76
3178;BME280;38141;42.666;23.344;2023-02-26T08:37:23;93312.03;;;21.45;28.69
3178;BME280;38141;42.666;23.344;2023-02-26T08:39:49;93329.25;;;21.40;28.31
3178;BME280;38141;42.666;23.344;2023-02-26T08:42:16;93352.34;;;22.00;28.03
3178;BME280;38141;42.666;23.344;2023-02-26T08:44:44;93335.66;;;22.46;27.58
3178;BME280;38141;42.666;23.344;2023-02-26T08:47:11;93363.78;;;22.55;27.19
3178;BME280;38141;42.666;23.344;2023-02-26T08:49:38;93359.59;;;22.29;27.19
3178;BME280;38141;42.666;23.344;2023-02-26T08:52:07;93333.25;;;20.58;28.43
3178;BME280;38141;42.666;23.344;2023-02-26T08:54:33;93369.56;;;21.23;28.47
3178;BME280;38141;42.666;23.344;2023-02-26T08:57:00;93366.22;;;21.34;28.04
3178;BME280;38141;42.666;23.344;2023-02-26T08:59:27;93350.94;;;21.58;28.15
3178;BME280;38141;42.666;23.344;2023-02-26T09:01:54;93360.28;;;21.92;27.83
3178;BME280;38141;42.666;23.344;2023-02-26T09:04:21;93343.75;;;21.92;27.42
3178;BME280;38141;42.666;23.344;2023-02-26T09:06:49;93385.53;;;21.65;27.65
3178;BME280;38141;42.666;23.344;2023-02-26T09:09:18;93346.03;;;21.42;27.93
3178;BME280;38141;42.666;23.344;2023-02-26T09:11:45;93368.00;;;21.88;27.30
3178;BME280;38141;42.666;23.344;2023-02-26T09:14:12;93363.09;;;22.29;27.07
3178;BME280;38141;42.666;23.344;2023-02-26T09:16:39;93372.72;;;23.35;25.49
3178;BME280;38141;42.666;23.344;2023-02-26T09:19:06;93339.69;;;24.80;23.92
3178;BME280;38141;42.666;23.344;2023-02-26T09:21:34;93370.50;;;25.29;23.83
3178;BME280;38141;42.666;23.344;2023-02-26T09:24:01;93360.59;;;26.62;23.00
3178;BME280;38141;42.666;23.344;2023-02-26T09:26:29;93353.47;;;26.96;21.96
3178;BME280;38141;42.666;23.344;2023-02-26T09:28:56;93371.38;;;28.50;21.47
3178;BME280;38141;42.666;23.344;2023-02-26T09:31:22;93381.50;;;29.38;20.34
3178;BME280;38141;42.666;23.344;2023-02-26T09:33:49;93356.53;;;29.45;20.19
3178;BME280;38141;42.666;23.344;2023-02-26T09:36:16;93344.09;;;31.74;19.07
3178;BME280;38141;42.666;23.344;2023-02-26T09:38:46;93397.03;;;30.95;19.25
3178;BME280;38141;42.666;23.344;2023-02-26T09:41:18;93392.50;;;30.84;19.18
3178;BME280;38141;42.666;23.344;2023-02-26T09:43:57;93362.72;;;30.66;18.93
3178;BME280;38141;42.666;23.344;2023-02-26T09:46:33;93392.19;;;31.73;18.35
3178;BME280;38141;42.666;23.344;2023-02-26T09:49:13;93355.72;;;30.52;19.02
3178;BME280;38141;42.666;23.344;2023-02-26T09:51:45;93361.75;;;29.75;19.75
3178;BME280;38141;42.666;23.344;2023-02-26T09:54:15;93350.63;;;28.19;20.57
3178;BME280;38141;42.666;23.344;2023-02-26T09:56:44;93341.16;;;27.91;20.90
3178;BME280;38141;42.666;23.344;2023-02-26T09:59:12;93388.44;;;27.91;20.77
3178;BME280;38141;42.666;23.344;2023-02-26T10:01:45;93334.56;;;28.57;20.62
3178;BME280;38141;42.666;23.344;2023-02-26T10:04:21;93364.47;;;27.50;21.30
3178;BME280;38141;42.666;23.344;2023-02-26T10:07:09;93344.38;;;27.20;21.65
3178;BME280;38141;42.666;23.344;2023-02-26T10:10:08;93346.84;;;26.15;22.63
3178;BME280;38141;42.666;23.344;2023-02-26T10:12:39;93345.09;;;27.63;21.83
3178;BME280;38141;42.666;23.344;2023-02-26T10:15:12;93332.22;;;27.98;21.80
3178;BME280;38141;42.666;23.344;2023-02-26T10:17:48;93344.41;;;27.14;21.81
3178;BME280;38141;42.666;23.344;2023-02-26T10:20:19;93367.38;;;27.39;21.66
3178;BME280;38141;42.666;23.344;2023-02-26T10:22:56;93351.31;;;25.88;22.80
3178;BME280;38141;42.666;23.344;2023-02-26T10:25:28;93320.44;;;26.92;22.46
3178;BME280;38141;42.666;23.344;2023-02-26T10:28:01;93316.41;;;26.64;22.25
3178;BME280;38141;42.666;23.344;2023-02-26T10:30:36;93324.31;;;26.30;22.74
3178;BME280;38141;42.666;23.344;2023-02-26T10:33:17;93302.91;;;26.79;22.37
3178;BME280;38141;42.666;23.344;2023-02-26T10:35:53;93320.09;;;27.02;22.55
3178;BME280;38141;42.666;23.344;2023-02-26T10:38:24;93318.00;;;25.53;23.20
3178;BME280;38141;42.666;23.344;2023-02-26T10:40:55;93299.97;;;25.35;23.84
3178;BME280;38141;42.666;23.344;2023-02-26T10:43:28;93289.63;;;25.36;23.51
3178;BME280;38141;42.666;23.344;2023-02-26T10:46:09;93274.84;;;25.28;23.51
3178;BME280;38141;42.666;23.344;2023-02-26T10:48:49;93289.28;;;25.04;23.85
3178;BME280;38141;42.666;23.344;2023-02-26T10:51:20;93289.50;;;23.92;25.22
3178;BME280;38141;42.666;23.344;2023-02-26T10:53:53;93276.44;;;23.71;25.02
3178;BME280;38141;42.666;23.344;2023-02-26T10:56:24;93304.56;;;24.47;24.19
3178;BME280;38141;42.666;23.344;2023-02-26T10:58:51;93285.97;;;24.03;24.85
3178;BME280;38141;42.666;23.344;2023-02-26T11:01:22;93311.09;;;23.88;25.14
3178;BME280;38141;42.666;23.344;2023-02-26T11:03:54;93295.22;;;23.44;25.65
3178;BME280;38141;42.666;23.344;2023-02-26T11:06:30;93299.53;;;22.86;25.90
3178;BME280;38141;42.666;23.344;2023-02-26T11:08:59;93299.16;;;22.68;26.90
3178;BME280;38141;42.666;23.344;2023-02-26T11:11:41;93297.41;;;22.22;27.71
3178;BME280;38141;42.666;23.344;2023-02-26T11:14:19;93257.19;;;21.67;27.94
3178;BME280;38141;42.666;23.344;2023-02-26T11:16:49;93269.28;;;20.98;28.80
3178;BME280;38141;42.666;23.344;2023-02-26T11:19:22;93254.75;;;21.18;28.27
3178;BME280;38141;42.666;23.344;2023-02-26T11:21:50;93277.50;;;21.18;28.43
3178;BME280;38141;42.666;23.344;2023-02-26T11:24:22;93284.47;;;20.94;28.60
3178;BME280;38141;42.666;23.344;2023-02-26T11:26:56;93258.59;;;20.39;29.57
3178;BME280;38141;42.666;23.344;2023-02-26T11:29:25;93282.38;;;20.28;29.95
3178;BME280;38141;42.666;23.344;2023-02-26T11:31:55;93289.75;;;20.22;30.31
3178;BME280;38141;42.666;23.344;2023-02-26T11:34:23;93272.91;;;20.29;30.24
3178;BME280;38141;42.666;23.344;2023-02-26T11:37:00;93289.34;;;20.09;30.49
3178;BME280;38141;42.666;23.344;2023-02-26T11:39:29;93294.22;;;20.34;30.36
3178;BME280;38141;42.666;23.344;2023-02-26T11:42:00;93303.06;;;20.09;30.72
3178;BME280;38141;42.666;23.344;2023-02-26T11:44:34;93306.84;;;20.11;31.18
3178;BME280;38141;42.666;23.344;2023-02-26T11:47:13;93333.38;;;19.99;31.67
3178;BME280;38141;42.666;23.344;2023-02-26T11:49:43;93295.09;;;19.76;30.88
3178;BME280;38141;42.666;23.344;2023-02-26T11:52:20;93337.19;;;19.87;30.68
3178;BME280;38141;42.666;23.344;2023-02-26T11:54:49;93336.84;;;19.27;32.20
3178;BME280;38141;42.666;23.344;2023-02-26T11:57:19;93364.84;;;19.31;32.72
3178;BME280;38141;42.666;23.344;2023-02-26T11:59:48;93360.66;;;19.59;31.12
3178;BME280;38141;42.666;23.344;2023-02-26T12:02:19;93346.56;;;19.51;30.69
3178;BME280;38141;42.666;23.344;2023-02-26T12:04:49;93356.19;;;19.91;31.79
3178;BME280;38141;42.666;23.344;2023-02-26T12:07:18;93336.16;;;19.85;31.38
3178;BME280;38141;42.666;23.344;2023-02-26T12:09:46;93354.56;;;20.14;31.81
3178;BME280;38141;42.666;23.344;2023-02-26T12:12:38;93375.81;;;19.69;32.41
3178;BME280;38141;42.666;23.344;2023-02-26T12:15:26;93350.75;;;19.62;33.26
3178;BME280;38141;42.666;23.344;2023-02-26T12:18:16;93368.69;;;20.21;32.98
3178;BME280;38141;42.666;23.344;2023-02-26T12:20:51;93365.09;;;20.30;33.13
3178;BME280;38141;42.666;23.344;2023-02-26T12:23:33;93361.81;;;20.46;32.63
3178;BME280;38141;42.666;23.344;2023-02-26T12:26:12;93350.81;;;19.96;32.65
3178;BME280;38141;42.666;23.344;2023-02-26T12:28:58;93362.84;;;19.84;33.56
3178;BME280;38141;42.666;23.344;2023-02-26T12:32:06;93381.94;;;20.08;33.60
3178;BME280;38141;42.666;23.344;2023-02-26T12:35:04;93388.47;;;20.11;34.88
3178;BME280;38141;42.666;23.344;2023-02-26T12:37:48;93351.88;;;19.84;35.75
3178;BME280;38141;42.666;23.344;2023-02-26T12:40:33;93368.13;;;20.03;35.08
3178;BME280;38141;42.666;23.344;2023-02-26T12:43:06;93396.41;;;20.53;35.02
3178;BME280;38141;42.666;23.344;2023-02-26T12:45:44;93388.50;;;20.80;34.52
3178;BME280;38141;42.666;23.344;2023-02-26T12:48:39;93375.97;;;21.14;33.25
3178;BME280;38141;42.666;23.344;2023-02-26T12:51:19;93392.06;;;21.42;33.49
3178;BME280;38141;42.666;23.344;2023-02-26T12:54:09;93385.84;;;21.47;32.54
3178;BME280;38141;42.666;23.344;2023-02-26T12:57:06;93398.63;;;20.34;32.29
3178;BME280;38141;42.666;23.344;2023-02-26T12:59:51;93408.59;;;20.66;32.08
3178;BME280;38141;42.666;23.344;2023-02-26T13:02:54;93400.88;;;20.21;32.38
3178;BME280;38141;42.666;23.344;2023-02-26T13:05:36;93420.56;;;19.90;32.13
3178;BME280;38141;42.666;23.344;2023-02-26T13:08:14;93385.06;;;19.72;32.79
3178;BME280;38141;42.666;23.344;2023-02-26T13:10:53;93379.09;;;19.44;33.66
3178;BME280;38141;42.666;23.344;2023-02-26T13:13:52;93388.66;;;19.63;33.61
3178;BME280;38141;42.666;23.344;2023-02-26T13:16:34;93380.50;;;19.54;33.75
3178;BME280;38141;42.666;23.344;2023-02-26T13:19:10;93381.34;;;19.45;33.23
3178;BME280;38141;42.666;23.344;2023-02-26T13:21:44;93385.03;;;19.42;33.36
3178;BME280;38141;42.666;23.344;2023-02-26T13:24:17;93416.84;;;19.64;33.59
3178;BME280;38141;42.666;23.344;2023-02-26T13:26:48;93410.16;;;19.65;33.61
3178;BME280;38141;42.666;23.344;2023-02-26T13:29:16;93398.63;;;19.75;33.74
3178;BME280;38141;42.666;23.344;2023-02-26T13:31:49;93384.03;;;19.54;33.97